Time;durP1;ratioP1;P1;durP2;ratioP2;P2;SDS_P1;SDS_P2;PMS_P1;PMS_P2;Temp;Humidity;BMP_temperature;BMP_pressure;BME280_temperature;BME280_humidity;BME280_pressure;Samples;Min_cycle;Max_cycle;Signal;HPM_P1;HPM_P2
2022/01/23 00:00:39;;;;;;;19.47;14.03;;;;;;;-2.77;82.69;99551.23;1790067;78;20998;-82
2022/01/23 00:03:10;;;;;;;18.80;11.77;;;;;;;-2.80;82.74;99551.08;1787219;78;21006;-79
2022/01/23 00:05:36;;;;;;;20.87;14.40;;;;;;;-2.85;82.73;99553.88;1786386;78;21016;-81
2022/01/23 00:08:02;;;;;;;18.13;12.77;;;;;;;-2.90;82.89;99550.94;1793313;79;21043;-80
2022/01/23 00:10:29;;;;;;;17.77;13.40;;;;;;;-2.85;83.25;99549.45;1780511;80;22291;-77
2022/01/23 00:13:08;;;;;;;15.60;12.03;;;;;;;-2.73;83.32;99552.53;1781692;78;21082;-80
2022/01/23 00:18:09;;;;;;;17.73;12.27;;;;;;;-2.51;83.16;99557.59;1755300;80;21507;-81
2022/01/23 00:20:36;;;;;;;18.37;12.07;;;;;;;-2.44;82.80;99557.22;1788648;80;21468;-79
2022/01/23 00:23:12;;;;;;;21.77;13.63;;;;;;;-2.45;82.67;99556.91;1788192;79;21948;-80
2022/01/23 00:31:01;;;;;;;15.63;10.37;;;;;;;-2.50;82.47;99559.23;1755030;80;20997;-83
2022/01/23 00:33:27;;;;;;;13.47;11.00;;;;;;;-2.55;82.33;99561.55;1751531;80;21034;-81
2022/01/23 00:35:54;;;;;;;15.73;10.27;;;;;;;-2.60;82.38;99562.55;1785821;80;21769;-80
2022/01/23 00:38:22;;;;;;;15.97;11.43;;;;;;;-2.63;82.45;99567.64;1787926;79;21028;-78
2022/01/23 00:40:48;;;;;;;12.37;9.90;;;;;;;-2.66;82.59;99573.25;1756100;80;21017;-79
2022/01/23 00:43:25;;;;;;;16.17;10.87;;;;;;;-2.69;82.72;99566.53;1786903;79;21070;-80
2022/01/23 00:45:49;;;;;;;16.13;10.83;;;;;;;-2.66;82.88;99566.67;1760355;80;20980;-80
2022/01/23 00:48:17;;;;;;;13.50;9.85;;;;;;;-2.64;82.82;99575.23;1781695;79;20987;-81
2022/01/23 00:50:45;;;;;;;15.57;11.47;;;;;;;-2.64;82.99;99578.66;1751994;80;20999;-86
2022/01/23 00:53:12;;;;;;;15.80;11.73;;;;;;;-2.66;82.95;99574.08;1787944;80;21466;-82
2022/01/23 00:55:43;;;;;;;16.17;10.37;;;;;;;-2.67;83.06;99568.48;1756761;80;20955;-85
2022/01/23 00:58:10;;;;;;;14.30;9.53;;;;;;;-2.61;83.20;99563.53;1757394;80;20970;-84
2022/01/23 01:00:39;;;;;;;16.17;11.47;;;;;;;-2.58;83.13;99564.50;1750331;80;21837;-86
2022/01/23 01:03:05;;;;;;;17.23;11.00;;;;;;;-2.62;83.05;99557.45;1781960;80;21540;-91
2022/01/23 01:05:32;;;;;;;15.50;9.37;;;;;;;-2.63;83.09;99562.38;1782271;80;22090;-85
2022/01/23 01:08:00;;;;;;;12.97;8.13;;;;;;;-2.71;83.09;99547.93;1802159;79;20995;-86
2022/01/23 01:10:47;;;;;;;10.97;8.80;;;;;;;-2.80;83.30;99555.52;1799144;79;20971;-90
2022/01/23 01:13:10;;;;;;;13.67;10.40;;;;;;;-2.88;83.53;99556.86;1790094;80;21412;-89
2022/01/23 01:15:54;;;;;;;12.70;9.27;;;;;;;-2.87;83.85;99559.80;1800319;78;21008;-86
2022/01/23 01:31:25;;;;;;;10.80;8.53;;;;;;;-2.75;83.89;99569.83;1744045;80;21097;-89
2022/01/23 01:33:49;;;;;;;16.13;11.43;;;;;;;-2.77;83.88;99563.06;1761827;81;20963;-92
2022/01/23 01:36:23;;;;;;;12.57;9.87;;;;;;;-2.80;83.87;99567.36;1762800;81;21042;-92
2022/01/23 01:38:46;;;;;;;15.07;10.70;;;;;;;-2.79;84.02;99567.20;1790188;78;21042;-79
2022/01/23 01:41:18;;;;;;;14.73;10.50;;;;;;;-2.74;84.22;99563.58;1793124;80;20920;-86
2022/01/23 01:43:46;;;;;;;18.10;12.07;;;;;;;-2.62;84.42;99564.03;1792152;80;20959;-76
2022/01/23 01:46:13;;;;;;;16.23;11.40;;;;;;;-2.53;84.27;99572.22;1788962;80;21010;-77
2022/01/23 01:48:42;;;;;;;10.27;8.30;;;;;;;-2.49;83.98;99576.65;1791195;79;21508;-76
2022/01/23 01:51:14;;;;;;;17.80;12.63;;;;;;;-2.50;83.91;99577.17;1761913;80;21034;-73
2022/01/23 01:53:49;;;;;;;16.13;10.43;;;;;;;-2.56;83.72;99575.70;1758007;80;21053;-82
2022/01/23 01:56:12;;;;;;;18.23;12.30;;;;;;;-2.60;83.78;99584.44;1791398;80;20993;-75
2022/01/23 02:02:46;;;;;;;16.53;11.30;;;;;;;-2.61;83.93;99583.28;1803009;78;20912;-72
2022/01/23 02:09:41;;;;;;;18.13;12.33;;;;;;;-2.62;83.95;99588.20;1811516;79;20869;-75
2022/01/23 02:55:47;;;;;;;15.37;11.43;;;;;;;-2.51;83.44;99633.45;1790955;79;21543;-78
2022/01/23 02:58:20;;;;;;;26.17;16.07;;;;;;;-2.53;83.62;99636.73;1806532;79;21076;-71
2022/01/23 03:01:11;;;;;;;13.70;11.40;;;;;;;-2.46;83.86;99642.16;1781428;80;20931;-70
2022/01/23 03:03:26;;;;;;;15.37;12.27;;;;;;;-2.38;83.82;99644.27;1722691;80;21059;-72
2022/01/23 03:06:21;;;;;;;14.37;11.77;;;;;;;-2.33;83.83;99645.08;1780914;79;21512;-74
2022/01/23 03:11:34;;;;;;;12.63;10.17;;;;;;;-2.24;83.73;99655.92;1780971;80;20997;-71
2022/01/23 03:24:02;;;;;;;14.73;11.33;;;;;;;-2.25;83.63;99658.22;1791813;79;21001;-72
2022/01/23 03:24:22;;;;;;;15.07;9.63;;;;;;;-2.31;83.46;99654.97;1778553;79;21049;-77
2022/01/23 03:26:54;;;;;;;14.87;12.07;;;;;;;-2.31;83.60;99662.38;1802381;79;20908;-75
2022/01/23 03:29:22;;;;;;;16.20;10.60;;;;;;;-2.30;83.65;99670.58;1790186;78;21485;-76
2022/01/23 03:34:25;;;;;;;11.73;9.48;;;;;;;-2.27;83.65;99685.24;1778839;79;21102;-73
2022/01/23 03:36:52;;;;;;;14.33;10.47;;;;;;;-2.23;83.67;99697.08;1769380;79;21800;-75
2022/01/23 03:39:18;;;;;;;16.03;11.40;;;;;;;-2.19;83.63;99693.11;1790815;79;21474;-76
2022/01/23 03:41:45;;;;;;;20.03;11.63;;;;;;;-2.10;83.67;99699.19;1790215;80;21093;-76
2022/01/23 03:44:14;;;;;;;17.00;11.47;;;;;;;-2.10;83.37;99714.50;1790343;80;21005;-76
2022/01/23 03:51:54;;;;;;;31.50;17.33;;;;;;;-2.19;82.85;99730.00;1796538;79;21590;-77
2022/01/23 03:54:22;;;;;;;16.90;12.43;;;;;;;-2.32;82.60;99732.33;1796061;79;21027;-79
2022/01/23 03:56:49;;;;;;;16.00;10.77;;;;;;;-2.41;82.88;99735.95;1791701;79;21501;-76
2022/01/23 03:59:15;;;;;;;14.93;9.60;;;;;;;-2.55;82.89;99732.18;1796617;79;21480;-75
2022/01/23 04:01:42;;;;;;;9.87;8.77;;;;;;;-2.68;83.17;99732.66;1769770;79;21045;-75
2022/01/23 04:04:23;;;;;;;12.17;8.97;;;;;;;-2.85;83.38;99733.64;1797076;78;21048;-76
2022/01/23 04:06:37;;;;;;;10.73;9.10;;;;;;;-2.99;83.91;99744.80;1769377;79;21054;-77
2022/01/23 04:09:03;;;;;;;14.47;11.23;;;;;;;-3.11;84.62;99744.77;1764276;79;20986;-72
2022/01/23 04:11:31;;;;;;;12.87;8.73;;;;;;;-3.23;85.17;99754.78;1796854;79;20986;-74
2022/01/23 04:14:04;;;;;;;12.00;7.07;;;;;;;-3.34;85.84;99754.23;1762556;79;21060;-76
2022/01/23 04:16:44;;;;;;;13.97;9.67;;;;;;;-3.42;86.48;99755.53;1787316;79;20904;-74
2022/01/23 04:19:18;;;;;;;11.77;7.73;;;;;;;-3.52;86.92;99752.54;1784840;80;20919;-72
2022/01/23 04:32:58;;;;;;;11.27;7.80;;;;;;;-3.45;87.44;99786.88;1787999;80;20975;-75
2022/01/23 04:46:25;;;;;;;10.67;7.53;;;;;;;-3.40;87.58;99806.95;1746820;80;21625;-74
2022/01/23 05:02:43;;;;;;;12.23;7.90;;;;;;;-3.50;87.96;99831.22;1773048;79;21500;-76
2022/01/23 05:04:58;;;;;;;13.87;8.67;;;;;;;-3.48;88.09;99833.70;1784219;79;21469;-74
2022/01/23 05:07:46;;;;;;;16.03;9.63;;;;;;;-3.56;87.98;99840.58;1725543;81;21207;-74
2022/01/23 05:10:18;;;;;;;14.60;9.10;;;;;;;-3.63;88.18;99838.70;1755129;81;21560;-72
2022/01/23 05:12:48;;;;;;;19.37;13.87;;;;;;;-3.61;88.31;99847.27;1766069;80;21014;-73
2022/01/23 05:15:16;;;;;;;22.47;11.03;;;;;;;-3.59;88.36;99857.13;1791280;79;21313;-74
2022/01/23 05:17:45;;;;;;;22.93;13.17;;;;;;;-3.55;88.38;99857.97;1793686;80;20977;-73
2022/01/23 05:20:14;;;;;;;14.90;11.90;;;;;;;-3.55;88.38;99861.12;1767543;80;21457;-74
2022/01/23 05:22:50;;;;;;;12.03;9.90;;;;;;;-3.59;88.31;99868.47;1807094;79;20947;-75
2022/01/23 05:27:42;;;;;;;15.57;10.90;;;;;;;-3.59;88.40;99877.67;1767025;80;21571;-73
2022/01/23 05:30:10;;;;;;;13.93;11.53;;;;;;;-3.57;88.34;99882.78;1766922;80;21065;-73
2022/01/23 05:32:40;;;;;;;14.83;9.37;;;;;;;-3.58;88.29;99885.06;1764337;80;21204;-72
2022/01/23 05:35:06;;;;;;;14.17;8.57;;;;;;;-3.61;88.39;99889.33;1789940;79;21614;-71
2022/01/23 05:37:33;;;;;;;12.73;10.17;;;;;;;-3.56;88.54;99893.15;1767109;80;21070;-72
2022/01/23 05:40:01;;;;;;;13.20;9.23;;;;;;;-3.57;88.43;99899.38;1793934;79;20963;-72
2022/01/23 05:42:30;;;;;;;9.23;8.00;;;;;;;-3.55;88.53;99907.91;1773095;79;21087;-73
2022/01/23 05:44:56;;;;;;;12.53;8.57;;;;;;;-3.58;88.43;99904.29;1807653;79;21088;-72
2022/01/23 05:47:23;;;;;;;12.53;8.73;;;;;;;-3.62;88.38;99910.02;1793037;80;20970;-74
2022/01/23 05:49:51;;;;;;;10.03;7.93;;;;;;;-3.70;88.68;99913.91;1785646;80;21006;-74
2022/01/23 05:52:19;;;;;;;15.20;9.20;;;;;;;-3.68;88.67;99915.88;1775889;80;21515;-75
2022/01/23 05:55:01;;;;;;;12.60;7.83;;;;;;;-3.68;88.64;99927.21;1759431;79;21551;-74
2022/01/23 05:57:46;;;;;;;12.77;8.87;;;;;;;-3.67;88.70;99928.87;1806711;79;21127;-74
2022/01/23 06:00:17;;;;;;;11.93;8.43;;;;;;;-3.65;88.62;99932.67;1793689;80;20971;-74
2022/01/23 06:02:45;;;;;;;7.77;6.30;;;;;;;-3.64;88.61;99943.00;1742881;79;21457;-72
2022/01/23 06:05:12;;;;;;;10.87;8.37;;;;;;;-3.61;88.65;99953.23;1808893;79;21523;-73
2022/01/23 06:07:42;;;;;;;11.23;8.87;;;;;;;-3.63;88.48;99960.92;1766831;80;21050;-73
2022/01/23 06:10:20;;;;;;;10.83;8.40;;;;;;;-3.61;88.64;99965.55;1793874;80;21158;-74
2022/01/23 06:12:39;;;;;;;13.10;9.83;;;;;;;-3.53;88.69;99969.54;1765653;80;21049;-75
2022/01/23 06:15:08;;;;;;;12.37;8.80;;;;;;;-3.50;88.51;99975.00;1757551;80;21078;-74
2022/01/23 06:17:36;;;;;;;10.77;9.63;;;;;;;-3.50;88.40;99978.94;1718871;80;21181;-73
2022/01/23 06:20:22;;;;;;;11.80;9.23;;;;;;;-3.46;88.39;99978.48;1768785;80;21060;-74
2022/01/23 06:22:54;;;;;;;10.77;9.13;;;;;;;-3.45;88.30;99987.20;1677731;82;21808;-73
2022/01/23 06:25:35;;;;;;;15.73;10.83;;;;;;;-3.40;88.34;99997.56;1738407;81;21560;-73
2022/01/23 06:28:06;;;;;;;18.63;11.90;;;;;;;-3.40;88.16;99990.99;1732085;82;20967;-74
2022/01/23 06:30:35;;;;;;;13.40;10.83;;;;;;;-3.34;88.26;99998.77;1740410;81;20930;-74
2022/01/23 06:33:05;;;;;;;16.43;13.43;;;;;;;-3.29;88.20;100001.76;1768796;80;20926;-73
2022/01/23 06:35:37;;;;;;;17.33;11.20;;;;;;;-3.28;87.84;100002.94;1752074;81;21061;-74
2022/01/23 06:38:03;;;;;;;14.40;11.13;;;;;;;-3.30;87.61;99997.47;1756884;80;20987;-74
2022/01/23 06:40:29;;;;;;;18.40;12.40;;;;;;;-3.31;87.57;100004.53;1709955;81;21030;-72
2022/01/23 06:42:57;;;;;;;17.63;12.60;;;;;;;-3.29;87.46;100007.84;1723537;82;20952;-74
2022/01/23 06:45:27;;;;;;;18.30;12.93;;;;;;;-3.36;87.03;100018.66;1743421;81;20916;-75
2022/01/23 06:47:56;;;;;;;23.20;15.23;;;;;;;-3.42;87.03;100033.72;1749688;81;20979;-73
2022/01/23 06:50:24;;;;;;;26.30;16.33;;;;;;;-3.43;87.15;100037.32;1765891;81;21024;-73
2022/01/23 06:52:51;;;;;;;30.63;19.90;;;;;;;-3.40;87.16;100038.80;1708775;81;21021;-75
2022/01/23 06:55:18;;;;;;;23.27;13.40;;;;;;;-3.42;86.91;100037.66;1752696;81;21054;-71
2022/01/23 06:57:46;;;;;;;21.20;16.27;;;;;;;-3.42;87.00;100032.89;1741894;81;21046;-73
2022/01/23 07:00:14;;;;;;;18.10;12.50;;;;;;;-3.44;86.88;100037.46;1764551;80;21166;-77
2022/01/23 07:02:59;;;;;;;18.50;12.73;;;;;;;-3.45;86.74;100047.66;1718706;82;20995;-73
2022/01/23 07:05:39;;;;;;;35.77;21.17;;;;;;;-3.47;86.78;100048.29;1708494;82;21013;-71
2022/01/23 07:08:10;;;;;;;25.77;16.03;;;;;;;-3.54;86.77;100059.41;1743978;81;21056;-73
2022/01/23 07:10:39;;;;;;;18.50;12.43;;;;;;;-3.54;86.88;100063.34;1737230;82;21051;-73
2022/01/23 07:13:07;;;;;;;26.60;17.50;;;;;;;-3.53;86.95;100071.58;1740382;80;21331;-73
2022/01/23 07:15:37;;;;;;;27.93;15.53;;;;;;;-3.50;87.04;100077.52;1789655;79;21104;-73
2022/01/23 07:18:06;;;;;;;24.07;14.40;;;;;;;-3.57;87.03;100072.86;1797851;79;20956;-70
2022/01/23 07:20:36;;;;;;;24.23;14.33;;;;;;;-3.53;86.93;100076.00;1815371;79;20889;-71
2022/01/23 07:23:10;;;;;;;17.50;11.90;;;;;;;-3.49;87.03;100079.98;1814873;79;20977;-72
2022/01/23 07:25:39;;;;;;;18.50;14.77;;;;;;;-3.44;86.90;100086.92;1800953;79;21194;-73
2022/01/23 07:28:11;;;;;;;21.20;12.97;;;;;;;-3.44;86.64;100091.36;1809994;79;20958;-72
2022/01/23 07:30:40;;;;;;;14.47;11.27;;;;;;;-3.42;86.77;100091.56;1796259;79;21005;-73
2022/01/23 07:33:05;;;;;;;16.60;12.43;;;;;;;-3.33;86.75;100095.91;1754928;80;21090;-73
2022/01/23 07:35:31;;;;;;;15.97;12.30;;;;;;;-3.30;86.51;100107.44;1792562;79;21548;-72
2022/01/23 07:37:58;;;;;;;17.63;11.07;;;;;;;-3.30;86.33;100114.01;1806689;79;21032;-76
2022/01/23 07:40:46;;;;;;;17.90;11.37;;;;;;;-3.29;86.21;100120.93;1811729;79;22222;-74
2022/01/23 07:43:15;;;;;;;17.00;12.10;;;;;;;-3.42;85.83;100120.48;1792853;80;21002;-73
2022/01/23 07:46:00;;;;;;;14.90;10.93;;;;;;;-3.40;86.03;100131.66;1767423;80;20974;-74
2022/01/23 07:48:31;;;;;;;12.67;10.47;;;;;;;-3.44;85.82;100136.05;1792179;79;21054;-76
2022/01/23 07:51:02;;;;;;;19.20;12.40;;;;;;;-3.43;86.03;100142.48;1813771;79;21161;-75
2022/01/23 07:53:39;;;;;;;17.43;12.30;;;;;;;-3.36;86.14;100143.56;1804629;79;21492;-74
2022/01/23 07:56:07;;;;;;;22.83;14.97;;;;;;;-3.34;85.92;100148.16;1793693;79;21006;-71
2022/01/23 07:58:36;;;;;;;13.93;10.23;;;;;;;-3.38;85.91;100150.75;1791502;80;21652;-72
2022/01/23 08:01:21;;;;;;;13.13;9.30;;;;;;;-3.31;86.15;100156.26;1806061;78;21015;-73
2022/01/23 08:04:07;;;;;;;12.27;8.70;;;;;;;-3.24;85.98;100162.07;1779736;79;21043;-74
2022/01/23 08:06:40;;;;;;;13.77;11.03;;;;;;;-3.24;85.59;100164.70;1774567;80;21500;-78
2022/01/23 08:09:15;;;;;;;14.27;10.70;;;;;;;-3.22;85.59;100169.81;1713988;83;21637;-74
2022/01/23 08:11:43;;;;;;;13.93;9.67;;;;;;;-3.20;85.04;100179.69;1763255;80;21030;-74
2022/01/23 08:14:09;;;;;;;14.90;11.73;;;;;;;-3.17;84.98;100184.66;1791891;78;21300;-75
2022/01/23 08:16:35;;;;;;;17.47;11.53;;;;;;;-3.20;84.98;100187.09;1792310;79;21860;-73
2022/01/23 08:19:02;;;;;;;18.17;14.33;;;;;;;-3.14;85.01;100193.56;1785901;80;20991;-76
2022/01/23 08:21:28;;;;;;;17.17;11.23;;;;;;;-3.04;85.19;100196.13;1754233;79;21033;-78
2022/01/23 08:23:55;;;;;;;13.63;9.93;;;;;;;-2.91;85.22;100202.66;1784161;80;21496;-78
2022/01/23 08:26:23;;;;;;;13.73;10.97;;;;;;;-2.80;85.11;100205.55;1785671;79;21659;-80
2022/01/23 08:28:49;;;;;;;20.07;14.17;;;;;;;-2.71;84.79;100217.31;1753792;80;21500;-77
2022/01/23 08:31:16;;;;;;;15.90;11.63;;;;;;;-2.72;84.12;100211.70;1781699;78;21034;-82
2022/01/23 08:33:42;;;;;;;17.73;12.47;;;;;;;-2.73;84.25;100222.38;1758182;79;21113;-78
2022/01/23 08:36:09;;;;;;;13.03;10.23;;;;;;;-2.69;84.25;100224.58;1782269;79;20987;-73
2022/01/23 08:38:36;;;;;;;14.47;10.63;;;;;;;-2.69;84.16;100238.23;1785452;79;21056;-75
2022/01/23 08:43:38;;;;;;;17.17;12.27;;;;;;;-2.71;83.70;100246.27;1759218;79;20972;-77
2022/01/23 08:46:06;;;;;;;12.73;11.37;;;;;;;-2.78;83.93;100239.14;1774101;80;21008;-74
2022/01/23 08:48:32;;;;;;;33.90;18.57;;;;;;;-2.78;84.05;100249.15;1765925;80;21704;-77
2022/01/23 08:50:58;;;;;;;16.53;12.53;;;;;;;-2.75;83.94;100247.55;1721349;82;21027;-76
2022/01/23 08:53:25;;;;;;;14.67;10.90;;;;;;;-2.73;83.80;100256.11;1751165;82;21124;-76
2022/01/23 08:55:51;;;;;;;14.63;10.47;;;;;;;-2.70;83.61;100258.45;1794368;78;21484;-75
2022/01/23 08:58:17;;;;;;;16.93;12.30;;;;;;;-2.69;83.28;100258.80;1790611;78;20994;-74
2022/01/23 09:00:44;;;;;;;28.10;17.63;;;;;;;-2.71;83.00;100259.92;1784749;78;21010;-72
2022/01/23 09:03:12;;;;;;;20.70;12.00;;;;;;;-2.74;83.01;100262.86;1771939;78;21076;-76
2022/01/23 09:05:38;;;;;;;33.67;21.20;;;;;;;-2.74;83.03;100265.49;1772015;80;21179;-76
2022/01/23 09:08:05;;;;;;;15.10;10.63;;;;;;;-2.77;82.90;100271.88;1779322;80;20945;-76
2022/01/23 09:10:40;;;;;;;14.60;10.70;;;;;;;-2.76;82.99;100275.33;1717968;80;21023;-80
2022/01/23 09:13:16;;;;;;;15.67;11.23;;;;;;;-2.76;83.07;100268.75;1769432;79;21033;-78
2022/01/23 09:15:38;;;;;;;14.83;10.80;;;;;;;-2.73;83.03;100271.07;1799201;79;21064;-84
2022/01/23 09:18:04;;;;;;;14.47;12.73;;;;;;;-2.70;83.06;100270.79;1772120;78;21021;-81
2022/01/23 09:20:33;;;;;;;13.30;10.60;;;;;;;-2.64;83.30;100274.95;1808306;78;21070;-78
2022/01/23 09:23:01;;;;;;;12.57;9.97;;;;;;;-2.53;83.23;100277.02;1795195;78;21001;-79
2022/01/23 09:25:28;;;;;;;15.53;10.73;;;;;;;-2.46;82.94;100279.39;1788548;78;20942;-77
2022/01/23 09:27:55;;;;;;;12.03;9.83;;;;;;;-2.35;82.83;100276.02;1801648;78;21028;-76
2022/01/23 09:30:22;;;;;;;12.93;9.33;;;;;;;-2.22;82.86;100271.69;1794017;78;21713;-77
2022/01/23 09:32:49;;;;;;;11.90;9.20;;;;;;;-2.13;82.31;100282.62;1802398;78;20950;-75
2022/01/23 09:35:16;;;;;;;17.43;12.83;;;;;;;-2.09;81.84;100289.23;1783424;78;20990;-83
2022/01/23 09:37:44;;;;;;;14.87;11.10;;;;;;;-2.06;81.63;100292.06;1767021;79;21088;-78
2022/01/23 09:40:11;;;;;;;12.37;9.80;;;;;;;-2.02;81.43;100291.60;1787338;79;20915;-72
2022/01/23 09:42:46;;;;;;;15.20;9.53;;;;;;;-1.94;81.55;100302.19;1769947;78;21097;-83
2022/01/23 09:45:13;;;;;;;13.53;8.63;;;;;;;-1.84;80.87;100302.92;1766927;79;21522;-83
2022/01/23 09:47:39;;;;;;;12.03;8.03;;;;;;;-1.88;80.68;100304.70;1794520;78;21003;-80
2022/01/23 09:50:07;;;;;;;9.53;8.23;;;;;;;-1.84;80.82;100297.64;1754149;80;21004;-81
2022/01/23 09:52:35;;;;;;;10.23;8.43;;;;;;;-1.67;81.00;100300.36;1784949;80;21523;-78
2022/01/23 09:55:09;;;;;;;10.00;8.67;;;;;;;-1.54;80.87;100310.84;1779463;80;21146;-79
2022/01/23 09:57:46;;;;;;;12.10;8.63;;;;;;;-1.53;79.37;100314.28;1739842;81;20976;-78
2022/01/23 10:00:18;;;;;;;22.23;13.70;;;;;;;-1.56;79.17;100314.12;1751354;80;21485;-79
2022/01/23 10:02:46;;;;;;;11.67;9.07;;;;;;;-1.59;78.76;100314.93;1786450;78;22276;-79
2022/01/23 10:05:13;;;;;;;13.27;8.63;;;;;;;-1.60;78.76;100315.91;1788461;78;21066;-76
2022/01/23 10:07:41;;;;;;;15.10;10.73;;;;;;;-1.68;78.93;100318.02;1782544;80;21609;-77
2022/01/23 10:10:11;;;;;;;15.00;11.30;;;;;;;-1.71;79.24;100316.98;1757220;80;20986;-77
2022/01/23 10:12:41;;;;;;;10.33;8.13;;;;;;;-1.69;79.35;100317.67;1754468;80;21019;-74
2022/01/23 10:15:09;;;;;;;9.33;7.87;;;;;;;-1.65;78.92;100315.55;1785031;80;21043;-74
2022/01/23 10:17:36;;;;;;;12.30;9.10;;;;;;;-1.67;78.15;100320.97;1786045;80;21039;-74
2022/01/23 10:20:04;;;;;;;14.50;10.17;;;;;;;-1.73;78.18;100327.38;1752516;80;21254;-78
2022/01/23 10:22:32;;;;;;;13.93;9.30;;;;;;;-1.82;78.37;100333.89;1750169;80;21660;-76
2022/01/23 10:25:13;;;;;;;15.40;10.97;;;;;;;-1.89;78.54;100335.98;1744130;80;21166;-74
2022/01/23 10:28:06;;;;;;;13.60;10.87;;;;;;;-1.94;78.69;100347.00;1745804;80;21632;-76
2022/01/23 10:30:54;;;;;;;17.10;10.73;;;;;;;-1.95;78.96;100349.77;1737805;80;21021;-76
2022/01/23 10:33:25;;;;;;;15.60;11.13;;;;;;;-2.01;79.34;100360.44;1776228;78;21100;-81
2022/01/23 10:36:16;;;;;;;14.47;10.87;;;;;;;-2.01;79.20;100353.02;1751202;80;21158;-84
2022/01/23 10:39:03;;;;;;;15.10;11.10;;;;;;;-2.15;79.74;100362.30;1791842;78;20956;-82
2022/01/23 10:42:01;;;;;;;17.37;10.70;;;;;;;-2.23;80.15;100356.48;1779882;79;20902;-80
2022/01/23 10:49:56;;;;;;;12.67;9.13;;;;;;;-2.03;80.12;100378.22;1732243;79;21605;-79
2022/01/23 10:52:45;;;;;;;14.17;9.33;;;;;;;-2.03;79.79;100382.18;1721438;82;21627;-81
2022/01/23 10:55:30;;;;;;;13.83;9.03;;;;;;;-2.01;79.72;100393.37;1776760;80;21069;-75
2022/01/23 10:58:01;;;;;;;9.87;8.50;;;;;;;-2.00;79.70;100404.75;1774594;79;21090;-74
2022/01/23 11:00:35;;;;;;;11.27;7.53;;;;;;;-2.17;79.47;100396.37;1801349;79;21080;-76
2022/01/23 11:03:21;;;;;;;12.83;9.27;;;;;;;-2.49;80.22;100404.27;1779453;79;21542;-75
2022/01/23 11:05:50;;;;;;;12.20;9.57;;;;;;;-2.50;80.58;100413.18;1744719;80;20969;-74
2022/01/23 11:08:28;;;;;;;10.73;8.93;;;;;;;-2.40;80.88;100407.33;1779662;80;20998;-75
2022/01/23 11:11:14;;;;;;;13.57;9.70;;;;;;;-2.29;80.51;100416.83;1784990;80;21524;-77
2022/01/23 11:19:39;;;;;;;20.13;14.20;;;;;;;-2.11;80.23;100431.35;1784569;80;21034;-76
2022/01/23 11:22:01;;;;;;;9.90;8.23;;;;;;;-2.03;80.12;100427.47;1747446;82;21047;-76
2022/01/23 11:24:39;;;;;;;12.20;9.37;;;;;;;-2.04;79.27;100431.91;1729764;80;20967;-78
2022/01/23 11:27:08;;;;;;;8.63;7.73;;;;;;;-2.03;79.01;100444.59;1755587;80;21031;-76
2022/01/23 11:29:34;;;;;;;16.13;11.13;;;;;;;-2.05;78.92;100448.69;1777781;80;21012;-76
2022/01/23 11:32:01;;;;;;;10.90;9.37;;;;;;;-2.01;78.93;100451.84;1775772;80;20985;-76
2022/01/23 11:34:28;;;;;;;10.47;9.13;;;;;;;-2.03;78.86;100454.66;1775919;80;20981;-76
2022/01/23 11:36:55;;;;;;;14.07;9.83;;;;;;;-2.09;78.12;100453.92;1775952;80;21017;-81
2022/01/23 11:39:42;;;;;;;12.73;10.53;;;;;;;-2.06;78.17;100474.70;1775273;80;21876;-77
2022/01/23 11:50:44;;;;;;;11.40;9.90;;;;;;;-1.83;76.77;100473.78;1754652;80;21078;-74
2022/01/23 11:56:41;;;;;;;21.70;14.63;;;;;;;-1.90;76.30;100481.94;1756483;80;22173;-82
2022/01/23 11:59:18;;;;;;;20.57;13.63;;;;;;;-1.94;76.85;100483.23;1745899;82;20955;-76
2022/01/23 12:01:49;;;;;;;13.80;11.70;;;;;;;-2.00;77.03;100479.38;1757565;80;21515;-76
2022/01/23 12:06:46;;;;;;;15.80;9.77;;;;;;;-2.23;77.18;100496.11;1785397;80;21267;-74
2022/01/23 12:09:18;;;;;;;16.57;12.17;;;;;;;-2.29;77.35;100498.01;1757045;80;20967;-78
2022/01/23 12:12:28;;;;;;;17.10;11.17;;;;;;;-2.26;77.82;100500.37;1787410;80;20974;-77
2022/01/23 12:17:13;;;;;;;15.00;10.20;;;;;;;-1.91;77.85;100499.56;1787661;80;21020;-73
2022/01/23 12:19:51;;;;;;;;;;;;;;;-1.84;77.10;100496.68;1788809;80;21085;-76
2022/01/23 12:22:38;;;;;;;15.27;11.23;;;;;;;-1.81;76.63;100517.46;1786110;80;20498;-81
2022/01/23 12:25:18;;;;;;;10.27;8.00;;;;;;;-1.72;76.70;100524.13;1785879;80;20991;-76
2022/01/23 12:27:44;;;;;;;12.70;9.40;;;;;;;-1.69;76.53;100523.35;1785988;79;21488;-74
2022/01/23 12:30:16;;;;;;;15.17;9.80;;;;;;;-1.70;76.30;100534.88;1776985;80;21017;-76
2022/01/23 12:32:43;;;;;;;14.23;10.55;;;;;;;-1.69;76.13;100544.94;1737851;80;21183;-80
2022/01/23 12:35:12;;;;;;;13.73;10.73;;;;;;;-1.71;76.18;100546.88;1721598;80;21088;-77
2022/01/23 12:38:02;;;;;;;12.40;9.23;;;;;;;-1.68;76.31;100553.19;1747060;80;20950;-75
2022/01/23 12:40:33;;;;;;;11.60;9.27;;;;;;;-1.60;76.55;100565.13;1719978;81;20990;-76
2022/01/23 12:43:27;;;;;;;12.60;11.20;;;;;;;-1.57;76.31;100570.09;1756925;81;20998;-74
2022/01/23 12:46:02;;;;;;;15.63;11.03;;;;;;;-1.63;76.16;100579.43;1756782;81;21130;-76
2022/01/23 12:48:38;;;;;;;19.57;12.87;;;;;;;-1.64;76.21;100584.39;1763503;80;22256;-76
2022/01/23 12:51:14;;;;;;;14.43;9.53;;;;;;;-1.73;76.01;100583.13;1786571;80;21000;-81
2022/01/23 12:53:50;;;;;;;13.37;9.20;;;;;;;-1.86;75.35;100593.53;1757518;80;20911;-75
2022/01/23 12:56:28;;;;;;;14.13;8.40;;;;;;;-1.95;75.61;100601.01;1755274;80;21067;-74
2022/01/23 12:59:05;;;;;;;11.13;9.07;;;;;;;-1.93;75.78;100599.55;1782511;80;21121;-74
2022/01/23 13:01:28;;;;;;;15.77;10.47;;;;;;;-1.87;75.86;100609.52;1745901;80;21523;-76
2022/01/23 13:04:00;;;;;;;13.73;10.80;;;;;;;-1.91;75.87;100618.67;1776528;80;21041;-81
2022/01/23 13:07:00;;;;;;;11.43;9.97;;;;;;;-1.85;76.20;100617.61;1776781;80;21038;-78
2022/01/23 13:09:36;;;;;;;14.37;9.27;;;;;;;-1.78;76.15;100623.97;1776660;80;20902;-76
2022/01/23 13:18:03;;;;;;;10.77;8.77;;;;;;;-1.92;75.17;100631.53;1776532;80;22080;-73
2022/01/23 13:32:16;;;;;;;9.48;7.30;;;;;;;-2.07;75.52;100649.63;1746360;80;21020;-75
2022/01/23 13:34:43;;;;;;;8.00;6.60;;;;;;;-2.10;75.79;100668.83;1771848;80;21585;-76
2022/01/23 13:37:16;;;;;;;8.00;6.67;;;;;;;-2.12;75.89;100665.05;1777009;80;21013;-75
2022/01/23 13:39:54;;;;;;;8.03;6.70;;;;;;;-2.15;76.08;100683.77;1776908;80;22213;-76
2022/01/23 13:54:16;;;;;;;13.77;7.30;;;;;;;-2.36;76.81;100691.89;1726693;81;21005;-76
2022/01/23 13:59:17;;;;;;;8.53;6.03;;;;;;;-2.46;77.35;100706.04;1757834;80;21057;-77
2022/01/23 14:01:52;;;;;;;9.50;7.03;;;;;;;-2.55;77.74;100706.89;1756897;80;21078;-74
2022/01/23 14:04:21;;;;;;;9.30;7.33;;;;;;;-2.53;77.85;100707.56;1784725;80;21484;-78
2022/01/23 14:06:47;;;;;;;10.47;7.17;;;;;;;-2.61;78.12;100711.39;1752619;80;21076;-74
2022/01/23 14:09:14;;;;;;;9.47;6.97;;;;;;;-2.57;78.25;100721.98;1749253;80;21598;-72
2022/01/23 14:11:41;;;;;;;12.33;7.40;;;;;;;-2.57;78.41;100725.94;1776647;80;21507;-74
2022/01/23 14:14:16;;;;;;;12.30;7.60;;;;;;;-2.54;78.61;100729.11;1790214;79;21031;-75
2022/01/23 14:16:45;;;;;;;11.20;8.50;;;;;;;-2.52;78.65;100733.77;1786146;80;21570;-73
2022/01/23 14:19:25;;;;;;;12.20;8.87;;;;;;;-2.60;78.80;100726.23;1766235;79;21133;-73
2022/01/23 14:21:56;;;;;;;12.03;7.23;;;;;;;-2.65;79.00;100730.11;1791471;79;20995;-75
2022/01/23 14:24:30;;;;;;;5.47;4.97;;;;;;;-2.75;79.34;100724.50;1778962;77;21088;-73
2022/01/23 14:27:06;;;;;;;9.70;7.23;;;;;;;-2.75;79.36;100729.77;1818267;78;21026;-72
2022/01/23 14:29:58;;;;;;;11.90;8.43;;;;;;;-2.73;79.35;100715.48;1796704;78;21003;-78
2022/01/23 14:32:35;;;;;;;11.12;7.80;;;;;;;-2.74;79.22;100738.02;1780573;79;21188;-75
2022/01/23 14:35:28;;;;;;;9.17;6.87;;;;;;;-2.72;79.27;100722.89;1765049;79;21543;-74
2022/01/23 14:38:10;;;;;;;9.67;7.50;;;;;;;-2.75;79.35;100726.65;1791130;79;21083;-87
2022/01/23 14:40:37;;;;;;;10.87;7.53;;;;;;;-2.80;79.41;100739.39;1802697;78;20934;-72
2022/01/23 14:43:09;;;;;;;9.63;7.67;;;;;;;-2.81;79.62;100740.36;1828311;78;21728;-79
2022/01/23 14:45:42;;;;;;;9.28;7.87;;;;;;;-2.82;79.84;100750.53;1808734;78;21199;-81
2022/01/23 14:48:09;;;;;;;;;;;;;;;-2.83;79.92;100747.55;1793789;79;21569;-81